createdAt,value
2023-04-24T00:03:30.392Z,10.57
2023-04-24T00:08:33.775Z,10.62
2023-04-24T00:13:36.984Z,10.37
2023-04-24T00:18:42.454Z,10.33
2023-04-24T00:23:45.985Z,10.24
2023-04-24T00:28:49.443Z,10.42
2023-04-24T00:33:54.173Z,10.30
2023-04-24T00:38:57.552Z,10.18
2023-04-24T00:44:01.004Z,10.34
2023-04-24T00:49:06.849Z,10.43
2023-04-24T00:54:10.040Z,10.23
2023-04-24T00:59:14.237Z,10.23
2023-04-24T01:04:20.196Z,10.28
2023-04-24T01:09:25.695Z,10.36
2023-04-24T01:14:29.174Z,10.32
2023-04-24T01:19:33.689Z,10.38
2023-04-24T01:24:38.918Z,10.29
2023-04-24T01:29:43.011Z,10.33
2023-04-24T01:34:47.665Z,10.38
2023-04-24T01:39:52.492Z,10.41
2023-04-24T01:44:56.668Z,10.59
2023-04-24T01:50:00.696Z,10.65
2023-04-24T01:55:06.381Z,10.64
2023-04-24T02:00:12.348Z,10.68
2023-04-24T02:05:18.114Z,10.69
2023-04-24T02:10:23.031Z,10.73
2023-04-24T02:15:26.108Z,10.54
2023-04-24T02:20:29.625Z,10.58
2023-04-24T02:25:35.384Z,10.47
2023-04-24T02:30:38.659Z,10.55
2023-04-24T02:35:41.864Z,10.47
2023-04-24T02:40:46.449Z,10.36
2023-04-24T02:45:49.995Z,10.38
2023-04-24T02:50:54.079Z,10.21
2023-04-24T02:55:58.886Z,10.24
2023-04-24T03:01:02.368Z,10.18
2023-04-24T03:06:06.784Z,10.22
2023-04-24T03:11:11.507Z,10.30
2023-04-24T03:16:15.600Z,10.30
2023-04-24T03:21:18.991Z,10.28
2023-04-24T03:26:23.742Z,10.30
2023-04-24T03:31:39.186Z,10.32
2023-04-24T03:36:43.120Z,10.37
2023-04-24T03:41:47.795Z,10.31
2023-04-24T03:46:55.321Z,10.32
2023-04-24T03:52:01.448Z,10.47
2023-04-24T03:57:06.995Z,10.37
2023-04-24T04:02:13.723Z,10.45
2023-04-24T04:07:18.630Z,10.38
2023-04-24T04:12:23.615Z,10.39
2023-04-24T04:17:26.790Z,10.50
2023-04-24T04:22:30.116Z,10.53
2023-04-24T04:27:38.654Z,10.37
2023-04-24T04:32:47.804Z,10.53
2023-04-24T04:37:52.328Z,10.58
2023-04-24T04:43:17.158Z,10.61
2023-04-24T04:48:26.830Z,10.68
2023-04-24T04:53:31.839Z,10.63
2023-04-24T04:58:36.657Z,10.62
2023-04-24T05:03:41.934Z,10.65
2023-04-24T05:08:49.785Z,10.70
2023-04-24T05:14:18.945Z,10.69
2023-04-24T05:19:22.659Z,10.74
2023-04-24T05:24:25.989Z,10.63
2023-04-24T05:29:52.305Z,10.86
2023-04-24T05:34:55.730Z,10.85
2023-04-24T05:39:59.508Z,10.89
2023-04-24T05:45:05.469Z,10.94
2023-04-24T05:50:09.956Z,10.83
2023-04-24T05:55:13.241Z,10.92
2023-04-24T06:00:20.679Z,10.79
2023-04-24T06:05:32.540Z,10.81
2023-04-24T06:10:35.787Z,11.24
2023-04-24T06:15:41.734Z,11.31
2023-04-24T06:20:48.820Z,11.54
2023-04-24T06:25:52.333Z,11.43
2023-04-24T06:30:57.165Z,11.61
2023-04-24T06:36:00.440Z,11.45
2023-04-24T06:41:04.438Z,11.65
2023-04-24T06:46:09.131Z,11.56
2023-04-24T06:51:12.430Z,11.27
2023-04-24T06:56:15.663Z,11.35
2023-04-24T07:01:20.572Z,11.35
2023-04-24T07:06:24.676Z,11.43
2023-04-24T07:11:30.219Z,11.72
2023-04-24T07:16:35.200Z,12.38
2023-04-24T07:21:38.551Z,12.24
2023-04-24T07:26:41.946Z,12.60
2023-04-24T07:31:46.782Z,12.37
2023-04-24T07:36:50.122Z,11.93
2023-04-24T07:41:53.410Z,11.89
2023-04-24T07:46:58.629Z,12.42
2023-04-24T07:52:03.615Z,12.88
2023-04-24T07:57:07.792Z,13.69
2023-04-24T08:02:12.992Z,13.96
2023-04-24T08:07:16.174Z,14.26
2023-04-24T08:12:19.494Z,13.30
2023-04-24T08:17:24.105Z,13.34
2023-04-24T08:22:27.554Z,13.38
2023-04-24T08:27:31.008Z,13.08
2023-04-24T08:32:35.922Z,14.08
2023-04-24T08:37:39.747Z,14.24
2023-04-24T08:42:45.413Z,15.59
2023-04-24T08:47:50.536Z,15.27
2023-04-24T08:52:55.172Z,13.82
2023-04-24T08:57:59.792Z,13.47
2023-04-24T09:03:06.937Z,14.15
2023-04-24T09:08:12.257Z,14.49
2023-04-24T09:13:16.740Z,15.10
2023-04-24T09:18:21.406Z,13.89
2023-04-24T09:23:24.596Z,14.23
2023-04-24T09:28:29.067Z,15.30
2023-04-24T09:33:33.724Z,15.11
2023-04-24T09:38:38.045Z,16.33
2023-04-24T09:43:41.358Z,16.02
2023-04-24T09:48:46.164Z,14.97
2023-04-24T09:53:49.519Z,15.00
2023-04-24T09:59:06.813Z,14.93
2023-04-24T10:04:18.391Z,14.33
2023-04-24T10:09:23.371Z,13.62
2023-04-24T10:14:27.557Z,15.03
2023-04-24T10:19:33.091Z,16.41
2023-04-24T10:24:38.176Z,16.49
2023-04-24T10:29:42.360Z,16.36
2023-04-24T10:34:47.260Z,16.51
2023-04-24T10:39:52.357Z,16.45
2023-04-24T10:44:57.368Z,16.44
2023-04-24T10:50:04.092Z,15.78
2023-04-24T10:55:08.751Z,15.75
2023-04-24T11:00:22.777Z,15.69
2023-04-24T11:05:54.536Z,15.69
2023-04-24T11:11:00.171Z,14.62
2023-04-24T11:16:17.097Z,15.48
2023-04-24T11:21:22.015Z,15.10
2023-04-24T11:26:25.823Z,14.99
2023-04-24T11:31:42.193Z,14.35
2023-04-24T11:36:47.583Z,14.41
2023-04-24T11:41:51.173Z,14.37
2023-04-24T11:46:54.368Z,14.66
2023-04-24T11:52:01.240Z,14.86
2023-04-24T11:57:08.115Z,14.27
2023-04-24T12:02:11.592Z,13.91
2023-04-24T12:07:17.324Z,14.49
2023-04-24T12:12:21.179Z,14.14
2023-04-24T12:17:29.451Z,13.34
2023-04-24T12:22:51.673Z,13.79
2023-04-24T12:27:57.135Z,13.85
2023-04-24T12:33:02.223Z,14.65
2023-04-24T12:38:11.058Z,13.86
2023-04-24T12:43:18.903Z,13.75
2023-04-24T12:48:23.318Z,13.64
2023-04-24T12:53:29.596Z,13.31
2023-04-24T12:58:32.854Z,12.66
2023-04-24T13:03:36.238Z,11.94
2023-04-24T13:08:40.890Z,11.68
2023-04-24T13:13:44.342Z,11.93
2023-04-24T13:18:47.595Z,11.98
2023-04-24T13:23:52.917Z,12.19
2023-04-24T13:28:56.122Z,12.80
2023-04-24T13:33:59.358Z,13.91
2023-04-24T13:39:05.649Z,13.65
2023-04-24T13:44:08.933Z,13.33
2023-04-24T13:49:12.575Z,13.56
2023-04-24T13:54:17.277Z,14.92
2023-04-24T13:59:22.291Z,14.06
2023-04-24T14:04:25.919Z,13.84
2023-04-24T14:09:30.824Z,13.80
2023-04-24T14:14:34.138Z,13.64
2023-04-24T14:19:37.991Z,14.42
2023-04-24T14:24:43.698Z,15.13
2023-04-24T14:29:47.524Z,14.60
2023-04-24T14:34:51.579Z,14.05
2023-04-24T14:40:13.548Z,13.95
2023-04-24T14:45:21.234Z,14.11
2023-04-24T14:50:29.153Z,13.60
2023-04-24T14:55:37.498Z,13.32
2023-04-24T15:00:41.289Z,12.60
2023-04-24T15:05:44.763Z,12.68
2023-04-24T15:10:50.507Z,12.84
2023-04-24T15:15:54.320Z,12.63
2023-04-24T15:20:58.214Z,12.42
2023-04-24T15:26:03.723Z,12.56
2023-04-24T15:31:08.069Z,12.47
2023-04-24T15:36:13.007Z,12.17
2023-04-24T15:41:17.920Z,11.85
2023-04-24T15:46:21.615Z,11.96
2023-04-24T15:51:24.920Z,12.23
2023-04-24T15:56:31.361Z,12.38
2023-04-24T16:01:35.595Z,12.22
2023-04-24T16:06:39.574Z,11.84
2023-04-24T16:11:45.599Z,11.87
2023-04-24T16:16:49.369Z,11.86
2023-04-24T16:21:54.418Z,11.59
2023-04-24T16:26:59.927Z,11.33
2023-04-24T16:32:03.926Z,11.17
2023-04-24T16:37:07.649Z,11.16
2023-04-24T16:42:14.407Z,11.05
2023-04-24T16:47:18.277Z,11.04
2023-04-24T16:52:23.060Z,11.51
2023-04-24T16:57:28.611Z,11.87
2023-04-24T17:02:32.428Z,11.37
2023-04-24T17:07:36.392Z,11.23
2023-04-24T17:12:42.111Z,11.00
2023-04-24T17:17:46.542Z,11.36
2023-04-24T17:22:50.588Z,11.20
2023-04-24T17:27:55.471Z,10.82
2023-04-24T17:32:58.903Z,10.59
2023-04-24T17:38:03.988Z,10.54
2023-04-24T17:43:08.722Z,10.38
2023-04-24T17:48:12.151Z,10.21
2023-04-24T17:53:15.825Z,9.96
2023-04-24T17:58:20.984Z,9.93
2023-04-24T18:03:24.845Z,9.91
2023-04-24T18:08:28.537Z,9.91
2023-04-24T18:13:33.742Z,10.04
2023-04-24T18:18:38.753Z,10.02
2023-04-24T18:23:42.617Z,9.93
2023-04-24T18:28:48.140Z,9.87
2023-04-24T18:33:53.476Z,9.95
2023-04-24T18:38:56.932Z,9.84
2023-04-24T18:44:02.550Z,9.66
2023-04-24T18:49:06.255Z,9.67
2023-04-24T18:54:10.150Z,9.51
2023-04-24T18:59:14.892Z,9.01
2023-04-24T19:04:20.909Z,8.92
2023-04-24T19:09:24.815Z,8.74
2023-04-24T19:14:30.487Z,8.53
2023-04-24T19:19:34.836Z,8.46
2023-04-24T19:24:39.167Z,8.24
2023-04-24T19:29:44.033Z,8.11
2023-04-24T19:34:47.979Z,7.81
2023-04-24T19:39:52.015Z,7.61
2023-04-24T19:44:56.837Z,7.52
2023-04-24T19:50:01.348Z,7.25
2023-04-24T19:55:05.915Z,7.31
2023-04-24T20:00:12.940Z,7.17
2023-04-24T20:05:17.915Z,7.05
2023-04-24T20:10:22.277Z,7.01
2023-04-24T20:15:27.293Z,6.81
2023-04-24T20:20:31.817Z,6.87
2023-04-24T20:25:36.588Z,6.73
2023-04-24T20:30:43.472Z,6.70
2023-04-24T20:35:47.097Z,6.61
2023-04-24T20:40:57.868Z,6.49
2023-04-24T20:46:03.686Z,6.36
2023-04-24T20:51:07.034Z,6.16
2023-04-24T20:56:11.489Z,6.24
2023-04-24T21:01:16.577Z,5.94
2023-04-24T21:06:19.890Z,5.77
2023-04-24T21:11:23.344Z,5.70
2023-04-24T21:16:28.162Z,5.71
2023-04-24T21:21:32.174Z,5.27
2023-04-24T21:26:35.723Z,5.43
2023-04-24T21:31:40.420Z,5.45
2023-04-24T21:36:43.549Z,5.71
2023-04-24T21:41:47.657Z,5.83
2023-04-24T21:46:52.541Z,5.85
2023-04-24T21:51:55.786Z,5.98
2023-04-24T21:56:59.161Z,5.92
2023-04-24T22:02:03.829Z,5.95
2023-04-24T22:07:07.181Z,6.15
2023-04-24T22:12:10.467Z,6.08
2023-04-24T22:17:17.334Z,6.24
2023-04-24T22:22:22.124Z,6.27
2023-04-24T22:27:25.423Z,6.47
2023-04-24T22:32:32.962Z,6.39
2023-04-24T22:37:36.296Z,6.64
2023-04-24T22:42:39.426Z,6.54
2023-04-24T22:47:44.118Z,6.69
2023-04-24T22:52:47.655Z,6.64
2023-04-24T22:57:51.102Z,6.58
2023-04-24T23:02:55.790Z,6.25
2023-04-24T23:07:59.055Z,6.04
2023-04-24T23:13:02.063Z,5.87
2023-04-24T23:18:06.872Z,5.74
2023-04-24T23:23:10.228Z,5.44
2023-04-24T23:28:13.495Z,5.44
2023-04-24T23:33:18.050Z,5.23
2023-04-24T23:38:21.236Z,5.25
2023-04-24T23:43:24.519Z,5.06
2023-04-24T23:48:29.123Z,5.13
2023-04-24T23:53:32.333Z,5.14
2023-04-24T23:58:36.835Z,4.97
